createdAt,value
2019-02-05T00:01:41.797Z,79.53
2019-02-05T00:04:08.891Z,73.95
2019-02-05T00:06:35.927Z,80.67
2019-02-05T00:09:08.319Z,64.32
2019-02-05T00:11:35.367Z,72.12
2019-02-05T00:14:02.401Z,74.72
2019-02-05T00:16:29.447Z,79.92
2019-02-05T00:18:56.791Z,86.30
2019-02-05T00:21:23.853Z,79.30
2019-02-05T00:23:50.892Z,75.08
2019-02-05T00:26:17.947Z,70.30
2019-02-05T00:28:44.994Z,69.72
2019-02-05T00:31:12.053Z,68.70
2019-02-05T00:33:39.102Z,105.60
2019-02-05T00:36:06.288Z,62.83
2019-02-05T00:38:33.353Z,63.20
2019-02-05T00:41:00.413Z,79.65
2019-02-05T00:43:27.459Z,55.10
2019-02-05T00:45:54.507Z,87.55
2019-02-05T00:48:21.535Z,114.10
2019-02-05T00:50:48.568Z,61.40
2019-02-05T00:53:15.598Z,65.32
2019-02-05T00:55:42.865Z,55.88
2019-02-05T00:58:09.951Z,81.32
2019-02-05T01:00:36.995Z,51.50
2019-02-05T01:03:04.398Z,60.83
2019-02-05T01:05:31.449Z,60.12
2019-02-05T01:07:58.521Z,54.23
2019-02-05T01:10:25.934Z,52.70
2019-02-05T01:12:53.454Z,73.78
2019-02-05T01:15:21.008Z,53.00
2019-02-05T01:17:48.058Z,52.78
2019-02-05T01:20:15.964Z,53.38
2019-02-05T01:22:43.064Z,110.70
2019-02-05T01:25:10.218Z,58.05
2019-02-05T01:27:37.266Z,51.53
2019-02-05T01:30:05.340Z,54.58
2019-02-05T01:32:32.374Z,68.02
2019-02-05T01:34:59.441Z,54.10
2019-02-05T01:37:26.493Z,55.98
2019-02-05T01:39:53.724Z,56.18
2019-02-05T01:42:20.759Z,61.58
2019-02-05T01:44:47.792Z,55.92
2019-02-05T01:47:15.167Z,84.17
2019-02-05T01:49:42.304Z,55.70
2019-02-05T01:52:09.359Z,74.37
2019-02-05T01:54:36.410Z,56.63
2019-02-05T01:57:03.444Z,57.13
2019-02-05T01:59:30.496Z,80.75
2019-02-05T02:01:57.517Z,53.42
2019-02-05T02:04:24.556Z,62.10
2019-02-05T02:06:51.822Z,71.70
2019-02-05T02:09:18.897Z,61.68
2019-02-05T02:11:45.932Z,67.17
2019-02-05T02:14:12.998Z,50.80
2019-02-05T02:16:40.030Z,72.30
2019-02-05T02:19:07.083Z,66.33
2019-02-05T02:21:34.336Z,65.37
2019-02-05T02:24:01.689Z,108.85
2019-02-05T02:26:28.758Z,84.47
2019-02-05T02:28:55.805Z,55.40
2019-02-05T02:31:22.868Z,94.47
2019-02-05T02:33:49.919Z,68.83
2019-02-05T02:36:16.964Z,66.30
2019-02-05T02:38:44.009Z,56.55
2019-02-05T02:41:11.057Z,76.15
2019-02-05T02:43:38.305Z,63.90
2019-02-05T02:46:05.363Z,159.32
2019-02-05T02:48:32.411Z,102.40
2019-02-05T02:50:59.451Z,82.00
2019-02-05T02:53:26.521Z,86.97
2019-02-05T02:55:53.584Z,117.95
2019-02-05T02:58:20.632Z,122.67
2019-02-05T03:00:47.957Z,80.15
2019-02-05T03:03:15.011Z,77.27
2019-02-05T03:05:44.299Z,79.58
2019-02-05T03:08:11.103Z,121.00
2019-02-05T03:10:38.168Z,83.25
2019-02-05T03:13:05.215Z,97.27
2019-02-05T03:15:32.263Z,79.25
2019-02-05T03:17:59.296Z,73.85
2019-02-05T03:20:26.338Z,78.00
2019-02-05T03:22:53.726Z,60.88
2019-02-05T03:25:21.156Z,87.08
2019-02-05T03:27:48.237Z,87.60
2019-02-05T03:30:19.473Z,83.95
2019-02-05T03:32:46.535Z,75.50
2019-02-05T03:35:13.954Z,121.42
2019-02-05T03:37:41.002Z,74.67
2019-02-05T03:40:16.039Z,71.97
2019-02-05T03:42:43.089Z,76.53
2019-02-05T03:45:10.217Z,75.32
2019-02-05T03:47:37.247Z,96.45
2019-02-05T03:50:04.656Z,72.60
2019-02-05T03:52:39.362Z,64.12
2019-02-05T03:55:46.606Z,66.87
2019-02-05T03:58:42.985Z,84.17
2019-02-05T04:01:27.179Z,83.17
2019-02-05T04:04:54.477Z,72.35
2019-02-05T04:07:54.120Z,75.22
2019-02-05T04:10:55.384Z,59.10
2019-02-05T04:13:59.062Z,70.97
2019-02-05T04:16:59.686Z,63.33
2019-02-05T04:20:03.201Z,64.72
2019-02-05T04:23:16.783Z,54.40
2019-02-05T04:26:09.054Z,60.28
2019-02-05T04:29:11.613Z,61.88
2019-02-05T04:32:34.253Z,58.55
2019-02-05T04:35:31.131Z,63.55
2019-02-05T04:38:54.759Z,63.42
2019-02-05T04:41:59.170Z,72.27
2019-02-05T04:44:50.341Z,61.15
2019-02-05T04:47:56.551Z,72.50
2019-02-05T04:50:56.607Z,69.53
2019-02-05T04:53:56.772Z,79.15
2019-02-05T04:57:08.318Z,60.38
2019-02-05T05:00:23.577Z,70.25
2019-02-05T05:03:35.247Z,73.70
2019-02-05T05:06:47.365Z,76.10
2019-02-05T05:09:33.441Z,66.80
2019-02-05T05:12:00.505Z,89.75
2019-02-05T05:14:27.569Z,67.27
2019-02-05T05:16:54.656Z,74.42
2019-02-05T05:19:21.663Z,78.95
2019-02-05T05:21:48.718Z,71.80
2019-02-05T05:24:15.761Z,78.97
2019-02-05T05:26:42.803Z,77.50
2019-02-05T05:29:09.834Z,78.50
2019-02-05T05:31:36.876Z,72.22
2019-02-05T05:34:04.055Z,71.75
2019-02-05T05:36:31.102Z,70.00
2019-02-05T05:38:58.470Z,68.67
2019-02-05T05:41:25.501Z,66.82
2019-02-05T05:43:52.580Z,86.17
2019-02-05T05:46:19.610Z,66.28
2019-02-05T05:48:46.668Z,73.33
2019-02-05T05:51:13.716Z,68.80
2019-02-05T05:53:40.810Z,67.47
2019-02-05T05:56:07.917Z,66.07
2019-02-05T05:58:35.268Z,69.07
2019-02-05T06:01:02.354Z,65.25
2019-02-05T06:03:29.470Z,72.35
2019-02-05T06:05:56.554Z,77.35
2019-02-05T06:08:23.608Z,74.50
2019-02-05T06:10:50.703Z,79.62
2019-02-05T06:13:17.748Z,81.70
2019-02-05T06:15:44.828Z,59.38
2019-02-05T06:18:12.063Z,74.77
2019-02-05T06:20:39.277Z,103.35
2019-02-05T06:23:06.749Z,98.45
2019-02-05T06:25:33.890Z,89.52
2019-02-05T06:28:00.929Z,65.00
2019-02-05T06:30:27.973Z,49.15
2019-02-05T06:32:55.048Z,51.55
2019-02-05T06:35:22.100Z,47.67
2019-02-05T06:37:49.540Z,50.95
2019-02-05T06:40:17.641Z,51.92
2019-02-05T06:42:44.829Z,45.43
2019-02-05T06:45:12.622Z,53.78
2019-02-05T06:47:39.782Z,54.80
2019-02-05T06:50:07.613Z,48.68
2019-02-05T06:52:34.669Z,53.75
2019-02-05T06:55:01.729Z,53.98
2019-02-05T06:57:29.385Z,51.33
2019-02-05T06:59:56.428Z,43.52
2019-02-05T07:02:23.469Z,45.98
2019-02-05T07:04:50.513Z,56.83
2019-02-05T07:07:17.687Z,54.48
2019-02-05T07:09:44.770Z,51.65
2019-02-05T07:12:11.811Z,61.90
2019-02-05T07:14:38.852Z,53.13
2019-02-05T07:17:06.180Z,52.17
2019-02-05T07:19:33.263Z,58.42
2019-02-05T07:22:00.285Z,58.13
2019-02-05T07:24:27.327Z,65.00
2019-02-05T07:26:54.291Z,59.75
2019-02-05T07:29:21.339Z,56.65
2019-02-05T07:31:48.381Z,66.50
2019-02-05T07:34:15.441Z,72.45
2019-02-05T07:36:42.955Z,65.70
2019-02-05T07:39:10.195Z,64.53
2019-02-05T07:41:37.287Z,62.70
2019-02-05T07:44:04.505Z,68.62
2019-02-05T07:46:31.592Z,64.20
2019-02-05T07:48:58.625Z,64.75
2019-02-05T07:51:25.659Z,67.30
2019-02-05T07:53:52.727Z,58.73
2019-02-05T07:56:19.779Z,60.25
2019-02-05T07:58:46.843Z,66.60
2019-02-05T08:01:14.098Z,64.60
2019-02-05T08:03:41.125Z,51.35
2019-02-05T08:06:08.154Z,70.62
2019-02-05T08:08:35.198Z,58.85
2019-02-05T08:11:02.325Z,56.10
2019-02-05T08:13:29.376Z,66.85
2019-02-05T08:15:56.430Z,77.42
2019-02-05T08:18:26.247Z,64.00
2019-02-05T08:20:53.322Z,59.13
2019-02-05T08:23:20.801Z,55.10
2019-02-05T08:25:47.855Z,62.20
2019-02-05T08:28:14.888Z,71.97
2019-02-05T08:30:44.380Z,59.63
2019-02-05T08:33:11.433Z,76.20
2019-02-05T08:35:38.487Z,66.00
2019-02-05T08:38:05.523Z,65.75
2019-02-05T08:40:32.674Z,56.77
2019-02-05T08:43:00.002Z,56.18
2019-02-05T08:45:28.219Z,54.88
2019-02-05T08:47:55.270Z,52.17
2019-02-05T08:50:23.808Z,53.40
2019-02-05T08:52:50.880Z,57.35
2019-02-05T08:55:18.597Z,53.17
2019-02-05T08:57:45.865Z,58.55
2019-02-05T09:00:17.944Z,54.93
2019-02-05T09:02:45.307Z,51.53
2019-02-05T09:05:12.427Z,47.88
2019-02-05T09:07:39.490Z,62.62
2019-02-05T09:10:07.802Z,58.13
2019-02-05T09:12:34.883Z,63.20
2019-02-05T09:15:02.031Z,61.10
2019-02-05T09:17:29.082Z,61.37
2019-02-05T09:19:56.121Z,65.15
2019-02-05T09:22:23.709Z,55.63
2019-02-05T09:24:50.770Z,56.02
2019-02-05T09:27:17.857Z,57.43
2019-02-05T09:29:44.980Z,67.87
2019-02-05T09:32:12.053Z,64.82
2019-02-05T09:34:40.854Z,58.98
2019-02-05T09:37:07.975Z,62.48
2019-02-05T09:39:35.010Z,53.87
2019-02-05T09:42:02.469Z,61.00
2019-02-05T09:44:31.459Z,57.30
2019-02-05T09:46:58.536Z,63.85
2019-02-05T09:49:25.583Z,62.95
2019-02-05T09:51:52.651Z,64.22
2019-02-05T09:54:19.685Z,60.83
2019-02-05T09:56:46.717Z,59.27
2019-02-05T09:59:13.769Z,81.47
2019-02-05T10:01:40.807Z,69.05
2019-02-05T10:04:07.959Z,74.42
2019-02-05T10:06:34.997Z,59.23
2019-02-05T10:09:02.045Z,66.00
2019-02-05T10:11:29.107Z,58.30
2019-02-05T10:13:56.143Z,59.77
2019-02-05T10:16:23.202Z,63.50
2019-02-05T10:18:50.250Z,69.42
2019-02-05T10:21:17.300Z,82.80
2019-02-05T10:23:44.654Z,73.78
2019-02-05T10:26:11.735Z,74.30
2019-02-05T10:28:38.809Z,60.15
2019-02-05T10:31:05.857Z,60.75
2019-02-05T10:33:32.930Z,58.20
2019-02-05T10:36:01.396Z,60.90
2019-02-05T10:38:28.669Z,56.77
2019-02-05T10:40:55.726Z,54.00
2019-02-05T10:43:23.173Z,55.00
2019-02-05T10:45:50.211Z,57.23
2019-02-05T10:48:17.293Z,59.80
2019-02-05T10:50:44.363Z,57.83
2019-02-05T10:53:11.410Z,75.87
2019-02-05T10:55:38.473Z,89.03
2019-02-05T10:58:06.369Z,61.05
2019-02-05T11:00:33.425Z,64.17
2019-02-05T11:03:01.405Z,57.83
2019-02-05T11:05:29.292Z,63.42
2019-02-05T11:07:56.355Z,46.45
2019-02-05T11:10:23.434Z,45.63
2019-02-05T11:12:50.580Z,54.10
2019-02-05T11:15:19.644Z,59.23
2019-02-05T11:17:46.726Z,56.23
2019-02-05T11:20:15.906Z,50.48
2019-02-05T11:22:43.272Z,50.05
2019-02-05T11:25:10.424Z,51.90
2019-02-05T11:27:37.532Z,44.50
2019-02-05T11:30:19.666Z,56.50
2019-02-05T11:32:38.067Z,58.95
2019-02-05T11:35:05.624Z,56.60
2019-02-05T11:37:32.690Z,55.17
2019-02-05T11:39:59.758Z,54.45
2019-02-05T11:42:27.119Z,54.67
2019-02-05T11:44:54.475Z,59.45
2019-02-05T11:47:21.565Z,59.85
2019-02-05T11:49:48.717Z,61.55
2019-02-05T11:52:56.147Z,60.60
2019-02-05T11:55:24.368Z,50.38
2019-02-05T11:57:51.412Z,52.62
2019-02-05T12:00:32.644Z,64.67
2019-02-05T12:02:58.871Z,60.90
2019-02-05T12:05:25.924Z,55.40
2019-02-05T12:07:53.178Z,63.42
2019-02-05T12:10:20.258Z,63.98
2019-02-05T12:12:47.315Z,56.05
2019-02-05T12:15:14.804Z,62.67
2019-02-05T12:17:41.860Z,68.40
2019-02-05T12:20:10.565Z,63.73
2019-02-05T12:22:37.621Z,54.15
2019-02-05T12:25:07.309Z,61.80
2019-02-05T12:27:34.351Z,59.10
2019-02-05T12:30:01.524Z,53.35
2019-02-05T12:32:28.587Z,62.00
2019-02-05T12:34:55.628Z,62.27
2019-02-05T12:37:22.693Z,54.80
2019-02-05T12:39:49.763Z,58.68
2019-02-05T12:42:16.820Z,64.30
2019-02-05T12:44:43.875Z,54.85
2019-02-05T12:47:10.910Z,60.38
2019-02-05T12:49:38.090Z,56.80
2019-02-05T12:52:05.133Z,63.52
2019-02-05T12:54:32.190Z,66.42
2019-02-05T12:56:59.252Z,61.92
2019-02-05T12:59:26.317Z,57.25
2019-02-05T13:01:53.378Z,65.95
2019-02-05T13:04:20.448Z,69.92
2019-02-05T13:06:47.480Z,66.92
2019-02-05T13:09:14.552Z,62.55
2019-02-05T13:11:41.591Z,58.63
2019-02-05T13:14:08.661Z,53.83
2019-02-05T13:16:35.749Z,68.22
2019-02-05T13:19:03.015Z,61.90
2019-02-05T13:21:30.067Z,56.30
2019-02-05T13:23:57.136Z,58.08
2019-02-05T13:26:24.286Z,62.23
2019-02-05T13:28:51.351Z,62.03
2019-02-05T13:31:18.407Z,66.10
2019-02-05T13:33:45.480Z,60.23
2019-02-05T13:36:12.538Z,58.25
2019-02-05T13:38:39.597Z,61.85
2019-02-05T13:41:06.624Z,67.12
2019-02-05T13:43:33.892Z,57.08
2019-02-05T13:46:01.286Z,56.63
2019-02-05T13:48:28.350Z,58.55
2019-02-05T13:50:55.429Z,56.77
2019-02-05T13:53:22.476Z,64.95
2019-02-05T13:55:49.576Z,60.00
2019-02-05T13:58:16.642Z,64.62
2019-02-05T14:00:48.873Z,64.05
2019-02-05T14:03:15.965Z,62.48
2019-02-05T14:05:43.337Z,63.17
2019-02-05T14:08:10.687Z,69.53
2019-02-05T14:10:38.385Z,72.50
2019-02-05T14:13:05.848Z,60.75
2019-02-05T14:15:34.569Z,70.90
2019-02-05T14:18:02.177Z,67.22
2019-02-05T14:20:29.338Z,70.50
2019-02-05T14:22:56.408Z,76.12
2019-02-05T14:25:23.487Z,76.10
2019-02-05T14:27:50.556Z,64.70
2019-02-05T14:30:21.559Z,68.55
2019-02-05T14:32:48.946Z,69.45
2019-02-05T14:35:16.427Z,68.10
2019-02-05T14:37:43.522Z,68.52
2019-02-05T14:40:12.695Z,66.65
2019-02-05T14:42:39.786Z,67.55
2019-02-05T14:45:08.558Z,74.07
2019-02-05T14:47:35.632Z,68.25
2019-02-05T14:50:04.234Z,57.15
2019-02-05T14:52:31.768Z,59.45
2019-02-05T14:54:58.858Z,68.40
2019-02-05T14:57:25.948Z,68.50
2019-02-05T14:59:53.036Z,69.75
2019-02-05T15:02:20.155Z,63.98
2019-02-05T15:04:47.218Z,65.70
2019-02-05T15:07:14.290Z,59.35
2019-02-05T15:09:41.377Z,68.07
2019-02-05T15:12:08.450Z,67.62
2019-02-05T15:14:35.647Z,62.70
2019-02-05T15:17:02.833Z,70.70
2019-02-05T15:19:29.914Z,62.75
2019-02-05T15:21:57.030Z,65.67
2019-02-05T15:24:24.160Z,64.62
2019-02-05T15:26:51.252Z,92.00
2019-02-05T15:29:18.638Z,62.13
2019-02-05T15:31:54.106Z,69.42
2019-02-05T15:34:25.587Z,67.03
2019-02-05T15:36:52.707Z,61.02
2019-02-05T15:39:19.839Z,66.65
2019-02-05T15:41:46.941Z,56.28
2019-02-05T15:44:14.397Z,54.80
2019-02-05T15:46:41.443Z,61.28
2019-02-05T15:49:08.561Z,56.45
2019-02-05T15:51:35.715Z,60.28
2019-02-05T15:54:02.880Z,56.10
2019-02-05T15:56:30.001Z,55.30
2019-02-05T15:58:57.142Z,66.80
2019-02-05T16:01:24.754Z,89.47
2019-02-05T16:03:51.987Z,93.60
2019-02-05T16:06:19.123Z,83.22
2019-02-05T16:08:48.383Z,63.15
2019-02-05T16:11:15.539Z,60.40
2019-02-05T16:13:43.915Z,95.45
2019-02-05T16:16:11.253Z,168.37
2019-02-05T16:18:48.689Z,94.35
2019-02-05T16:21:16.429Z,59.90
2019-02-05T16:23:50.033Z,54.65
2019-02-05T16:26:17.227Z,60.98
2019-02-05T16:28:44.622Z,60.17
2019-02-05T16:31:11.753Z,64.53
2019-02-05T16:33:40.075Z,65.55
2019-02-05T16:36:07.280Z,63.60
2019-02-05T16:38:34.422Z,70.50
2019-02-05T16:41:01.621Z,67.03
2019-02-05T16:43:28.758Z,65.95
2019-02-05T16:45:55.898Z,71.10
2019-02-05T16:48:23.216Z,74.12
2019-02-05T16:50:50.738Z,84.55
2019-02-05T16:53:18.039Z,77.53
2019-02-05T16:55:45.344Z,64.90
2019-02-05T16:58:12.487Z,66.42
2019-02-05T17:00:39.818Z,72.87
2019-02-05T17:03:07.070Z,75.20
2019-02-05T17:05:35.951Z,75.62
2019-02-05T17:08:03.601Z,71.22
2019-02-05T17:10:30.747Z,70.67
2019-02-05T17:12:57.882Z,85.85
2019-02-05T17:15:25.032Z,74.00
2019-02-05T17:17:52.284Z,73.15
2019-02-05T17:20:22.009Z,76.53
2019-02-05T17:22:49.399Z,72.82
2019-02-05T17:25:17.529Z,77.42
2019-02-05T17:27:46.811Z,70.78
2019-02-05T17:30:21.660Z,70.78
2019-02-05T17:32:48.793Z,78.80
2019-02-05T17:35:15.969Z,75.75
2019-02-05T17:37:43.331Z,77.17
2019-02-05T17:40:12.978Z,72.20
2019-02-05T17:42:40.308Z,80.00
2019-02-05T17:45:11.297Z,79.72
2019-02-05T17:47:38.427Z,71.82
2019-02-05T17:50:06.207Z,92.45
2019-02-05T17:52:34.177Z,74.95
2019-02-05T17:55:01.841Z,79.35
2019-02-05T17:57:29.004Z,123.80
2019-02-05T17:59:56.334Z,84.58
2019-02-05T18:02:24.203Z,77.05
2019-02-05T18:04:51.887Z,78.10
2019-02-05T18:07:19.134Z,80.22
2019-02-05T18:09:46.434Z,87.02
2019-02-05T18:12:13.783Z,75.55
2019-02-05T18:14:41.002Z,93.52
2019-02-05T18:17:08.538Z,80.47
2019-02-05T18:19:35.774Z,115.92
2019-02-05T18:22:04.219Z,102.67
2019-02-05T18:24:31.625Z,110.57
2019-02-05T18:26:58.909Z,93.82
2019-02-05T18:29:26.186Z,85.92
2019-02-05T18:31:53.426Z,80.87
2019-02-05T18:34:21.061Z,81.80
2019-02-05T18:36:48.399Z,85.85
2019-02-05T18:39:15.652Z,76.65
2019-02-05T18:41:43.210Z,85.17
2019-02-05T18:44:10.444Z,76.07
2019-02-05T18:46:37.732Z,84.15
2019-02-05T18:49:06.333Z,81.92
2019-02-05T18:51:34.366Z,71.53
2019-02-05T18:54:03.224Z,79.82
2019-02-05T18:56:31.064Z,78.40
2019-02-05T18:58:59.564Z,88.17
2019-02-05T19:01:27.179Z,80.22
2019-02-05T19:03:54.795Z,82.55
2019-02-05T19:06:24.903Z,83.65
2019-02-05T19:08:53.097Z,81.10
2019-02-05T19:11:21.631Z,85.67
2019-02-05T19:13:49.297Z,77.75
2019-02-05T19:16:17.722Z,86.75
2019-02-05T19:18:48.067Z,100.38
2019-02-05T19:21:17.256Z,101.40
2019-02-05T19:23:46.869Z,104.83
2019-02-05T19:26:21.047Z,98.58
2019-02-05T19:28:48.594Z,110.22
2019-02-05T19:31:28.879Z,92.20
2019-02-05T19:33:56.719Z,110.30
2019-02-05T19:36:25.002Z,108.10
2019-02-05T19:38:53.060Z,106.87
2019-02-05T19:41:20.887Z,97.67
2019-02-05T19:43:48.666Z,93.00
2019-02-05T19:46:34.701Z,78.67
2019-02-05T19:49:22.282Z,99.37
2019-02-05T19:51:54.645Z,93.30
2019-02-05T19:54:22.522Z,97.45
2019-02-05T19:56:52.592Z,172.82
2019-02-05T19:59:23.506Z,131.15
2019-02-05T20:01:54.943Z,103.42
2019-02-05T20:04:24.257Z,94.83
2019-02-05T20:06:51.773Z,100.12
2019-02-05T20:09:21.226Z,119.20
2019-02-05T20:11:48.828Z,138.90
2019-02-05T20:14:16.152Z,122.58
2019-02-05T20:16:45.731Z,129.05
2019-02-05T20:19:14.267Z,105.83
2019-02-05T20:21:45.430Z,127.40
2019-02-05T20:24:15.133Z,99.55
2019-02-05T20:26:47.669Z,136.68
2019-02-05T20:29:15.410Z,98.50
2019-02-05T20:31:43.633Z,93.60
2019-02-05T20:34:10.915Z,97.22
2019-02-05T20:36:38.750Z,130.78
2019-02-05T20:39:15.145Z,114.57
2019-02-05T20:41:43.305Z,102.17
2019-02-05T20:44:13.773Z,162.35
2019-02-05T20:46:40.970Z,96.37
2019-02-05T20:49:11.429Z,117.22
2019-02-05T20:51:38.665Z,140.47
2019-02-05T20:54:06.462Z,125.45
2019-02-05T20:56:33.986Z,120.70
2019-02-05T20:59:01.448Z,115.28
2019-02-05T21:01:31.899Z,112.28
2019-02-05T21:04:01.562Z,104.10
2019-02-05T21:06:31.004Z,118.90
2019-02-05T21:08:58.124Z,99.25
2019-02-05T21:11:26.994Z,113.35
2019-02-05T21:13:56.485Z,102.42
2019-02-05T21:16:23.688Z,163.25
2019-02-05T21:18:51.398Z,146.13
2019-02-05T21:21:18.812Z,111.70
2019-02-05T21:23:45.908Z,113.28
2019-02-05T21:26:13.057Z,151.07
2019-02-05T21:28:40.223Z,127.45
2019-02-05T21:31:07.383Z,117.45
2019-02-05T21:33:34.520Z,122.30
2019-02-05T21:36:01.893Z,115.37
2019-02-05T21:38:29.002Z,110.22
2019-02-05T21:40:56.389Z,111.35
2019-02-05T21:43:23.798Z,102.02
2019-02-05T21:45:50.963Z,107.03
2019-02-05T21:48:18.542Z,97.90
2019-02-05T21:50:45.641Z,134.30
2019-02-05T21:53:12.825Z,107.97
2019-02-05T21:55:39.945Z,125.35
2019-02-05T21:58:07.060Z,113.00
2019-02-05T22:00:34.334Z,104.95
2019-02-05T22:03:03.016Z,142.40
2019-02-05T22:05:30.618Z,96.15
2019-02-05T22:07:58.214Z,107.30
2019-02-05T22:10:25.330Z,102.78
2019-02-05T22:12:52.438Z,99.87
2019-02-05T22:15:20.108Z,101.33
2019-02-05T22:17:47.325Z,109.32
2019-02-05T22:20:16.483Z,90.60
2019-02-05T22:22:44.400Z,120.13
2019-02-05T22:25:14.742Z,92.57
2019-02-05T22:27:41.856Z,98.45
2019-02-05T22:30:14.133Z,115.65
2019-02-05T22:32:41.515Z,106.90
2019-02-05T22:35:08.606Z,95.50
2019-02-05T22:37:35.701Z,96.55
2019-02-05T22:40:04.093Z,98.70
2019-02-05T22:42:31.175Z,103.00
2019-02-05T22:44:58.350Z,105.75
2019-02-05T22:47:25.399Z,92.50
2019-02-05T22:49:52.468Z,100.25
2019-02-05T22:52:19.533Z,110.42
2019-02-05T22:54:46.564Z,98.22
2019-02-05T22:57:13.607Z,81.90
2019-02-05T22:59:40.846Z,112.47
2019-02-05T23:02:07.979Z,93.95
2019-02-05T23:05:28.569Z,245.80
2019-02-05T23:07:55.614Z,83.35
2019-02-05T23:10:43.617Z,86.50
2019-02-05T23:13:13.418Z,77.05
2019-02-05T23:15:42.700Z,82.80
2019-02-05T23:18:10.061Z,130.30
2019-02-05T23:20:37.103Z,119.53
2019-02-05T23:23:04.179Z,72.32
2019-02-05T23:25:31.228Z,84.58
2019-02-05T23:27:58.282Z,73.92
2019-02-05T23:30:26.898Z,70.15
2019-02-05T23:32:53.955Z,101.35
2019-02-05T23:35:21.043Z,95.15
2019-02-05T23:37:48.325Z,75.28
2019-02-05T23:40:15.346Z,107.85
2019-02-05T23:42:42.389Z,79.40
2019-02-05T23:45:09.671Z,69.40
2019-02-05T23:47:36.729Z,91.12
2019-02-05T23:50:05.029Z,77.87
2019-02-05T23:52:32.085Z,208.75
2019-02-05T23:54:59.431Z,67.72
2019-02-05T23:57:26.499Z,76.17
2019-02-05T23:59:53.531Z,68.72
